createdAt,value
2019-05-22T00:00:39.710Z,0.00
2019-05-22T00:01:39.700Z,0.00
2019-05-22T00:02:39.694Z,0.00
2019-05-22T00:03:39.684Z,0.00
2019-05-22T00:04:39.680Z,0.00
2019-05-22T00:05:39.680Z,0.00
2019-05-22T00:06:39.695Z,0.00
2019-05-22T00:07:39.660Z,0.00
2019-05-22T00:08:39.704Z,0.00
2019-05-22T00:09:39.644Z,0.00
2019-05-22T00:10:39.637Z,0.00
2019-05-22T00:11:39.637Z,0.00
2019-05-22T00:12:46.852Z,0.00
2019-05-22T00:13:39.620Z,0.00
2019-05-22T00:14:39.614Z,0.00
2019-05-22T00:15:39.599Z,0.00
2019-05-22T00:16:39.600Z,0.00
2019-05-22T00:17:39.593Z,0.00
2019-05-22T00:18:39.583Z,0.00
2019-05-22T00:19:39.576Z,0.00
2019-05-22T00:20:39.567Z,0.00
2019-05-22T00:21:39.571Z,0.00
2019-05-22T00:22:39.552Z,0.00
2019-05-22T00:23:39.556Z,0.00
2019-05-22T00:24:39.540Z,0.00
2019-05-22T00:25:39.531Z,0.00
2019-05-22T00:26:39.524Z,0.00
2019-05-22T00:27:39.519Z,0.00
2019-05-22T00:28:39.513Z,0.00
2019-05-22T00:29:39.502Z,0.00
2019-05-22T00:30:39.499Z,0.00
2019-05-22T00:31:39.491Z,0.00
2019-05-22T00:32:39.490Z,0.00
2019-05-22T00:33:39.476Z,0.00
2019-05-22T00:34:39.470Z,0.00
2019-05-22T00:35:39.457Z,0.00
2019-05-22T00:36:39.457Z,0.00
2019-05-22T00:37:39.449Z,0.00
2019-05-22T00:38:39.444Z,0.00
2019-05-22T00:39:39.433Z,0.00
2019-05-22T00:40:39.429Z,0.00
2019-05-22T00:41:39.421Z,0.00
2019-05-22T00:42:39.411Z,0.00
2019-05-22T00:43:39.404Z,0.00
2019-05-22T00:44:39.401Z,0.00
2019-05-22T00:45:39.394Z,0.00
2019-05-22T00:46:39.385Z,0.00
2019-05-22T00:47:39.375Z,0.00
2019-05-22T00:48:39.371Z,0.00
2019-05-22T00:49:39.366Z,0.00
2019-05-22T00:50:39.358Z,0.00
2019-05-22T00:51:39.347Z,0.00
2019-05-22T00:52:39.345Z,0.00
2019-05-22T00:53:39.337Z,0.00
2019-05-22T00:54:39.329Z,0.00
2019-05-22T00:55:39.322Z,0.00
2019-05-22T00:56:39.312Z,0.00
2019-05-22T00:57:39.304Z,0.00
2019-05-22T00:58:39.302Z,0.00
2019-05-22T00:59:39.291Z,0.00
2019-05-22T01:00:39.359Z,0.00
2019-05-22T01:01:39.337Z,0.00
2019-05-22T01:02:39.265Z,0.00
2019-05-22T01:03:39.265Z,0.00
2019-05-22T01:04:39.256Z,0.00
2019-05-22T01:05:39.249Z,0.00
2019-05-22T01:06:39.239Z,0.00
2019-05-22T01:07:39.235Z,0.00
2019-05-22T01:08:39.223Z,0.00
2019-05-22T01:09:39.222Z,0.00
2019-05-22T01:10:39.214Z,0.00
2019-05-22T01:11:39.206Z,0.00
2019-05-22T01:12:39.202Z,0.00
2019-05-22T01:13:39.194Z,0.00
2019-05-22T01:14:42.867Z,0.00
2019-05-22T01:15:39.181Z,0.00
2019-05-22T01:16:39.172Z,0.00
2019-05-22T01:17:39.169Z,0.00
2019-05-22T01:18:39.158Z,0.00
2019-05-22T01:19:39.149Z,0.00
2019-05-22T01:20:39.141Z,0.00
2019-05-22T01:21:39.139Z,0.00
2019-05-22T01:22:39.128Z,0.00
2019-05-22T01:23:39.118Z,0.00
2019-05-22T01:24:39.115Z,0.00
2019-05-22T01:25:39.108Z,0.00
2019-05-22T01:26:39.100Z,0.00
2019-05-22T01:27:39.092Z,0.00
2019-05-22T01:28:39.093Z,0.00
2019-05-22T01:29:39.076Z,0.00
2019-05-22T01:30:39.072Z,0.00
2019-05-22T01:31:39.064Z,0.00
2019-05-22T01:32:39.055Z,0.00
2019-05-22T01:33:39.046Z,0.00
2019-05-22T01:34:39.040Z,0.00
2019-05-22T01:35:39.035Z,0.00
2019-05-22T01:36:39.029Z,0.00
2019-05-22T01:37:39.025Z,0.00
2019-05-22T01:38:39.011Z,0.00
2019-05-22T01:39:39.006Z,0.00
2019-05-22T01:40:38.997Z,0.00
2019-05-22T01:41:38.994Z,0.00
2019-05-22T01:42:39.020Z,0.00
2019-05-22T01:43:38.974Z,0.00
2019-05-22T01:44:38.969Z,0.00
2019-05-22T01:45:38.963Z,0.00
2019-05-22T01:46:38.955Z,0.00
2019-05-22T01:47:38.947Z,0.00
2019-05-22T01:48:38.941Z,0.00
2019-05-22T01:49:38.931Z,0.00
2019-05-22T01:50:38.932Z,0.00
2019-05-22T01:51:38.922Z,0.00
2019-05-22T01:52:38.911Z,0.00
2019-05-22T01:53:38.913Z,0.00
2019-05-22T01:54:38.893Z,0.00
2019-05-22T01:55:38.892Z,0.00
2019-05-22T01:56:38.885Z,0.00
2019-05-22T01:57:38.875Z,0.00
2019-05-22T01:58:38.866Z,0.00
2019-05-22T01:59:38.862Z,0.00
2019-05-22T02:00:38.859Z,0.00
2019-05-22T02:01:38.843Z,0.00
2019-05-22T02:02:38.837Z,0.00
2019-05-22T02:03:38.843Z,0.00
2019-05-22T02:04:38.827Z,0.00
2019-05-22T02:05:38.818Z,0.00
2019-05-22T02:06:38.812Z,0.00
2019-05-22T02:07:38.806Z,0.00
2019-05-22T02:08:38.794Z,0.00
2019-05-22T02:09:38.791Z,0.00
2019-05-22T02:10:38.780Z,0.00
2019-05-22T02:11:38.775Z,0.00
2019-05-22T02:12:38.772Z,0.00
2019-05-22T02:13:38.810Z,0.00
2019-05-22T02:14:38.772Z,0.00
2019-05-22T02:15:38.742Z,0.00
2019-05-22T02:16:53.863Z,0.00
2019-05-22T02:17:38.732Z,0.00
2019-05-22T02:18:38.722Z,0.00
2019-05-22T02:19:38.809Z,0.00
2019-05-22T02:20:38.703Z,0.00
2019-05-22T02:21:38.702Z,0.00
2019-05-22T02:22:38.701Z,0.00
2019-05-22T02:23:38.686Z,0.00
2019-05-22T02:24:38.677Z,0.00
2019-05-22T02:25:38.671Z,0.00
2019-05-22T02:26:38.667Z,0.00
2019-05-22T02:27:38.658Z,0.00
2019-05-22T02:28:38.649Z,0.00
2019-05-22T02:29:38.639Z,0.00
2019-05-22T02:30:38.638Z,0.00
2019-05-22T02:31:38.634Z,0.00
2019-05-22T02:32:38.619Z,0.00
2019-05-22T02:33:38.610Z,0.00
2019-05-22T02:34:38.602Z,0.00
2019-05-22T02:35:38.600Z,0.00
2019-05-22T02:36:38.589Z,0.00
2019-05-22T02:37:38.591Z,0.00
2019-05-22T02:38:38.576Z,0.00
2019-05-22T02:39:38.569Z,0.00
2019-05-22T02:40:38.561Z,0.00
2019-05-22T02:41:38.561Z,0.00
2019-05-22T02:42:38.546Z,0.00
2019-05-22T02:43:38.540Z,0.00
2019-05-22T02:44:38.532Z,0.00
2019-05-22T02:45:38.529Z,0.00
2019-05-22T02:46:38.516Z,0.00
2019-05-22T02:47:38.514Z,0.00
2019-05-22T02:48:42.098Z,0.00
2019-05-22T02:49:38.496Z,0.00
2019-05-22T02:50:38.489Z,0.00
2019-05-22T02:51:38.483Z,0.00
2019-05-22T02:52:38.559Z,0.00
2019-05-22T02:53:38.464Z,0.00
2019-05-22T02:54:38.458Z,0.00
2019-05-22T02:55:38.452Z,0.00
2019-05-22T02:56:38.448Z,0.00
2019-05-22T02:57:38.441Z,0.00
2019-05-22T02:58:38.432Z,0.00
2019-05-22T02:59:38.426Z,0.00
2019-05-22T03:00:38.413Z,0.00
2019-05-22T03:01:38.407Z,0.00
2019-05-22T03:02:38.400Z,4.00
2019-05-22T03:03:38.389Z,4.00
2019-05-22T03:04:38.387Z,0.00
2019-05-22T03:05:38.378Z,4.00
2019-05-22T03:06:38.371Z,4.00
2019-05-22T03:07:38.359Z,4.00
2019-05-22T03:08:38.348Z,4.00
2019-05-22T03:09:38.352Z,4.00
2019-05-22T03:10:38.358Z,4.00
2019-05-22T03:11:38.335Z,4.00
2019-05-22T03:12:38.324Z,4.00
2019-05-22T03:13:38.324Z,8.00
2019-05-22T03:14:38.309Z,4.00
2019-05-22T03:15:38.306Z,8.00
2019-05-22T03:16:38.298Z,8.00
2019-05-22T03:17:38.289Z,8.00
2019-05-22T03:18:38.281Z,12.00
2019-05-22T03:19:38.277Z,12.00
2019-05-22T03:20:38.269Z,16.00
2019-05-22T03:21:38.260Z,12.00
2019-05-22T03:22:38.251Z,20.00
2019-05-22T03:23:38.243Z,24.00
2019-05-22T03:24:38.241Z,28.00
2019-05-22T03:25:38.226Z,32.00
2019-05-22T03:26:38.221Z,32.00
2019-05-22T03:27:38.216Z,56.00
2019-05-22T03:28:38.207Z,60.00
2019-05-22T03:29:38.201Z,56.00
2019-05-22T03:30:38.217Z,52.00
2019-05-22T03:31:38.186Z,48.00
2019-05-22T03:32:43.367Z,60.00
2019-05-22T03:33:38.175Z,60.00
2019-05-22T03:34:38.210Z,56.00
2019-05-22T03:35:38.151Z,64.00
2019-05-22T03:36:38.148Z,84.00
2019-05-22T03:37:38.142Z,96.00
2019-05-22T03:38:38.141Z,108.00
2019-05-22T03:39:38.129Z,124.00
2019-05-22T03:40:38.117Z,140.00
2019-05-22T03:41:38.113Z,160.00
2019-05-22T03:42:38.101Z,164.00
2019-05-22T03:43:38.098Z,160.00
2019-05-22T03:44:38.092Z,168.00
2019-05-22T03:45:38.082Z,184.00
2019-05-22T03:46:38.074Z,204.00
2019-05-22T03:47:38.063Z,232.00
2019-05-22T03:48:38.062Z,260.00
2019-05-22T03:49:38.049Z,288.00
2019-05-22T03:50:38.039Z,320.00
2019-05-22T03:51:38.035Z,344.00
2019-05-22T03:52:38.032Z,356.00
2019-05-22T03:53:38.024Z,392.00
2019-05-22T03:54:38.018Z,404.00
2019-05-22T03:55:38.005Z,376.00
2019-05-22T03:56:38.002Z,364.00
2019-05-22T03:57:37.992Z,388.00
2019-05-22T03:58:37.992Z,468.00
2019-05-22T03:59:37.975Z,444.00
2019-05-22T04:00:42.982Z,368.00
2019-05-22T04:01:37.971Z,412.00
2019-05-22T04:02:37.958Z,400.00
2019-05-22T04:03:37.951Z,404.00
2019-05-22T04:04:37.935Z,428.00
2019-05-22T04:05:37.930Z,452.00
2019-05-22T04:06:37.928Z,464.00
2019-05-22T04:07:37.915Z,456.00
2019-05-22T04:08:37.910Z,444.00
2019-05-22T04:09:37.899Z,416.00
2019-05-22T04:10:41.046Z,408.00
2019-05-22T04:11:37.884Z,412.00
2019-05-22T04:12:37.873Z,420.00
2019-05-22T04:13:37.870Z,392.00
2019-05-22T04:14:37.864Z,404.00
2019-05-22T04:15:37.853Z,400.00
2019-05-22T04:16:37.846Z,380.00
2019-05-22T04:17:37.841Z,396.00
2019-05-22T04:18:37.831Z,404.00
2019-05-22T04:19:49.355Z,380.00
2019-05-22T04:20:37.818Z,424.00
2019-05-22T04:21:37.812Z,348.00
2019-05-22T04:22:37.803Z,336.00
2019-05-22T04:23:37.824Z,368.00
2019-05-22T04:24:37.793Z,360.00
2019-05-22T04:25:37.781Z,308.00
2019-05-22T04:26:37.774Z,284.00
2019-05-22T04:27:37.763Z,272.00
2019-05-22T04:28:37.758Z,284.00
2019-05-22T04:29:37.757Z,276.00
2019-05-22T04:30:37.741Z,284.00
2019-05-22T04:31:37.734Z,280.00
2019-05-22T04:32:37.729Z,312.00
2019-05-22T04:33:37.718Z,344.00
2019-05-22T04:34:37.717Z,424.00
2019-05-22T04:35:37.706Z,444.00
2019-05-22T04:36:37.725Z,424.00
2019-05-22T04:37:37.691Z,396.00
2019-05-22T04:38:37.681Z,488.00
2019-05-22T04:39:37.678Z,520.00
2019-05-22T04:40:37.667Z,516.00
2019-05-22T04:41:37.663Z,520.00
2019-05-22T04:42:37.655Z,488.00
2019-05-22T04:43:37.643Z,532.00
2019-05-22T04:44:37.640Z,792.00
2019-05-22T04:45:37.631Z,840.00
2019-05-22T04:46:37.624Z,928.00
2019-05-22T04:47:37.615Z,1012.00
2019-05-22T04:48:37.612Z,1048.00
2019-05-22T04:49:37.601Z,1020.00
2019-05-22T04:50:37.598Z,880.00
2019-05-22T04:51:37.585Z,808.00
2019-05-22T04:52:37.577Z,784.00
2019-05-22T04:53:37.572Z,876.00
2019-05-22T04:54:37.562Z,928.00
2019-05-22T04:55:37.558Z,944.00
2019-05-22T04:56:37.549Z,916.00
2019-05-22T04:57:37.541Z,868.00
2019-05-22T04:58:37.534Z,836.00
2019-05-22T04:59:37.531Z,912.00
2019-05-22T05:00:37.524Z,916.00
2019-05-22T05:01:37.515Z,856.00
2019-05-22T05:02:37.518Z,816.00
2019-05-22T05:03:37.497Z,784.00
2019-05-22T05:04:37.493Z,764.00
2019-05-22T05:05:37.482Z,776.00
2019-05-22T05:06:37.472Z,796.00
2019-05-22T05:07:37.460Z,744.00
2019-05-22T05:08:37.456Z,720.00
2019-05-22T05:09:37.458Z,708.00
2019-05-22T05:10:37.446Z,680.00
2019-05-22T05:11:37.436Z,640.00
2019-05-22T05:12:38.242Z,672.00
2019-05-22T05:13:37.424Z,732.00
2019-05-22T05:14:37.413Z,712.00
2019-05-22T05:15:37.465Z,668.00
2019-05-22T05:16:37.396Z,644.00
2019-05-22T05:17:37.388Z,652.00
2019-05-22T05:18:37.389Z,692.00
2019-05-22T05:19:37.375Z,700.00
2019-05-22T05:20:37.366Z,716.00
2019-05-22T05:21:37.365Z,716.00
2019-05-22T05:22:37.355Z,692.00
2019-05-22T05:23:37.344Z,696.00
2019-05-22T05:24:37.342Z,828.00
2019-05-22T05:25:37.331Z,832.00
2019-05-22T05:26:37.323Z,892.00
2019-05-22T05:27:37.318Z,936.00
2019-05-22T05:28:37.310Z,908.00
2019-05-22T05:29:37.302Z,956.00
2019-05-22T05:30:37.292Z,1128.00
2019-05-22T05:31:37.287Z,1268.00
2019-05-22T05:32:37.277Z,1264.00
2019-05-22T05:33:37.280Z,1364.00
2019-05-22T05:34:37.268Z,1456.00
2019-05-22T05:35:37.255Z,1480.00
2019-05-22T05:36:37.251Z,1408.00
2019-05-22T05:37:37.245Z,1444.00
2019-05-22T05:38:37.237Z,1412.00
2019-05-22T05:39:37.240Z,1300.00
2019-05-22T05:40:37.219Z,1348.00
2019-05-22T05:41:37.220Z,1476.00
2019-05-22T05:42:37.202Z,1428.00
2019-05-22T05:43:37.199Z,1320.00
2019-05-22T05:44:37.202Z,1420.00
2019-05-22T05:45:37.189Z,1564.00
2019-05-22T05:46:37.174Z,1544.00
2019-05-22T05:47:37.169Z,1528.00
2019-05-22T05:48:37.160Z,1676.00
2019-05-22T05:49:37.156Z,1732.00
2019-05-22T05:50:40.175Z,1728.00
2019-05-22T05:51:37.138Z,1804.00
2019-05-22T05:52:37.131Z,1920.00
2019-05-22T05:53:37.123Z,1940.00
2019-05-22T05:54:37.112Z,2012.00
2019-05-22T05:55:37.109Z,2184.00
2019-05-22T05:56:37.253Z,2212.00
2019-05-22T05:57:37.092Z,2364.00
2019-05-22T05:58:37.090Z,2304.00
2019-05-22T05:59:37.078Z,2472.00
2019-05-22T06:00:37.073Z,2608.00
2019-05-22T06:01:37.063Z,2664.00
2019-05-22T06:02:37.058Z,2688.00
2019-05-22T06:03:37.050Z,2696.00
2019-05-22T06:04:37.041Z,2908.00
2019-05-22T06:05:37.031Z,3012.00
2019-05-22T06:06:37.031Z,3056.00
2019-05-22T06:07:37.021Z,3192.00
2019-05-22T06:08:37.014Z,3320.00
2019-05-22T06:09:37.006Z,3724.00
2019-05-22T06:10:36.996Z,4064.00
2019-05-22T06:11:36.990Z,4576.00
2019-05-22T06:12:36.984Z,5044.00
2019-05-22T06:13:36.988Z,5328.00
2019-05-22T06:14:36.967Z,4932.00
2019-05-22T06:15:46.485Z,5348.00
2019-05-22T06:16:36.952Z,5656.00
2019-05-22T06:17:36.951Z,5972.00
2019-05-22T06:18:36.940Z,6532.00
2019-05-22T06:19:36.934Z,6180.00
2019-05-22T06:20:36.923Z,6828.00
2019-05-22T06:21:36.917Z,6460.00
2019-05-22T06:22:36.911Z,6004.00
2019-05-22T06:23:36.901Z,6060.00
2019-05-22T06:24:36.907Z,6412.00
2019-05-22T06:25:36.888Z,6404.00
2019-05-22T06:26:36.884Z,6184.00
2019-05-22T06:27:36.910Z,6512.00
2019-05-22T06:28:36.878Z,5688.00
2019-05-22T06:29:36.915Z,5868.00
2019-05-22T06:30:36.855Z,6608.00
2019-05-22T06:31:36.848Z,5580.00
2019-05-22T06:32:37.775Z,5216.00
2019-05-22T06:33:36.834Z,4660.00
2019-05-22T06:34:36.823Z,4176.00
2019-05-22T06:35:36.943Z,4028.00
2019-05-22T06:36:36.810Z,3920.00
2019-05-22T06:37:36.802Z,3820.00
2019-05-22T06:38:36.793Z,3700.00
2019-05-22T06:39:36.789Z,3708.00
2019-05-22T06:40:36.783Z,3740.00
2019-05-22T06:41:36.777Z,3912.00
2019-05-22T06:42:36.786Z,4308.00
2019-05-22T06:43:36.762Z,4788.00
2019-05-22T06:44:36.763Z,5256.00
2019-05-22T06:45:36.750Z,5444.00
2019-05-22T06:46:36.740Z,5272.00
2019-05-22T06:47:36.735Z,6152.00
2019-05-22T06:48:36.730Z,6680.00
2019-05-22T06:49:36.780Z,6352.00
2019-05-22T06:50:36.714Z,5384.00
2019-05-22T06:51:36.706Z,4540.00
2019-05-22T06:52:36.696Z,3768.00
2019-05-22T06:53:39.725Z,3272.00
2019-05-22T06:54:36.690Z,3148.00
2019-05-22T06:55:36.719Z,3352.00
2019-05-22T06:56:36.674Z,3020.00
2019-05-22T06:57:36.667Z,2920.00
2019-05-22T06:58:36.663Z,2700.00
2019-05-22T06:59:36.654Z,2616.00
2019-05-22T07:00:36.649Z,2856.00
2019-05-22T07:01:36.637Z,2876.00
2019-05-22T07:02:36.633Z,2828.00
2019-05-22T07:03:36.629Z,2908.00
2019-05-22T07:04:36.628Z,2800.00
2019-05-22T07:05:36.608Z,2896.00
2019-05-22T07:06:36.610Z,2704.00
2019-05-22T07:07:36.592Z,2768.00
2019-05-22T07:08:36.586Z,2604.00
2019-05-22T07:09:36.584Z,2636.00
2019-05-22T07:10:36.582Z,2644.00
2019-05-22T07:11:36.569Z,2700.00
2019-05-22T07:12:36.560Z,2400.00
2019-05-22T07:13:36.551Z,2548.00
2019-05-22T07:14:36.543Z,2836.00
2019-05-22T07:15:36.622Z,2916.00
2019-05-22T07:16:36.534Z,3696.00
2019-05-22T07:17:36.522Z,3732.00
2019-05-22T07:18:36.519Z,3100.00
2019-05-22T07:19:36.511Z,3356.00
2019-05-22T07:20:36.505Z,3800.00
2019-05-22T07:21:36.499Z,3768.00
2019-05-22T07:22:36.489Z,3268.00
2019-05-22T07:23:36.486Z,4304.00
2019-05-22T07:24:36.480Z,4996.00
2019-05-22T07:25:36.477Z,4772.00
2019-05-22T07:26:36.488Z,4968.00
2019-05-22T07:27:36.462Z,5288.00
2019-05-22T07:28:36.458Z,5224.00
2019-05-22T07:29:36.450Z,5420.00
2019-05-22T07:30:37.233Z,5684.00
2019-05-22T07:31:36.426Z,5632.00
2019-05-22T07:32:36.418Z,4928.00
2019-05-22T07:33:36.411Z,4816.00
2019-05-22T07:34:36.404Z,4768.00
2019-05-22T07:35:50.304Z,4400.00
2019-05-22T07:36:36.387Z,4260.00
2019-05-22T07:37:36.380Z,4304.00
2019-05-22T07:38:36.402Z,4128.00
2019-05-22T07:39:36.369Z,4200.00
2019-05-22T07:40:36.368Z,4124.00
2019-05-22T07:41:36.352Z,4100.00
2019-05-22T07:42:36.349Z,4144.00
2019-05-22T07:43:40.912Z,3908.00
2019-05-22T07:44:36.334Z,4000.00
2019-05-22T07:45:36.329Z,4052.00
2019-05-22T07:46:36.317Z,3848.00
2019-05-22T07:47:36.316Z,3932.00
2019-05-22T07:48:36.308Z,4216.00
2019-05-22T07:49:36.301Z,4360.00
2019-05-22T07:50:36.290Z,4472.00
2019-05-22T07:51:51.480Z,4540.00
2019-05-22T07:52:36.275Z,4464.00
2019-05-22T07:53:36.272Z,4312.00
2019-05-22T07:54:36.268Z,4260.00
2019-05-22T07:55:36.256Z,3976.00
2019-05-22T07:56:36.253Z,3832.00
2019-05-22T07:57:36.247Z,4212.00
2019-05-22T07:58:36.231Z,4976.00
2019-05-22T07:59:36.229Z,4832.00
2019-05-22T08:00:36.223Z,4828.00
2019-05-22T08:01:36.217Z,5040.00
2019-05-22T08:02:36.210Z,4912.00
2019-05-22T08:03:36.201Z,5096.00
2019-05-22T08:04:36.192Z,4928.00
2019-05-22T08:05:36.189Z,5800.00
2019-05-22T08:06:36.183Z,6960.00
2019-05-22T08:07:36.197Z,7456.00
2019-05-22T08:08:36.173Z,7348.00
2019-05-22T08:09:36.160Z,7156.00
2019-05-22T08:10:36.157Z,7388.00
2019-05-22T08:11:36.144Z,7776.00
2019-05-22T08:12:36.140Z,8480.00
2019-05-22T08:13:36.142Z,8868.00
2019-05-22T08:14:36.132Z,8704.00
2019-05-22T08:15:36.118Z,8396.00
2019-05-22T08:16:36.112Z,8332.00
2019-05-22T08:17:36.106Z,8460.00
2019-05-22T08:18:36.110Z,9384.00
2019-05-22T08:19:36.092Z,10184.00
2019-05-22T08:20:36.082Z,9408.00
2019-05-22T08:21:36.075Z,8404.00
2019-05-22T08:22:36.068Z,8276.00
2019-05-22T08:23:36.067Z,8148.00
2019-05-22T08:24:36.061Z,8292.00
2019-05-22T08:25:36.059Z,7900.00
2019-05-22T08:26:53.157Z,7376.00
2019-05-22T08:27:36.037Z,7408.00
2019-05-22T08:28:36.037Z,7296.00
2019-05-22T08:29:36.025Z,7196.00
2019-05-22T08:30:36.020Z,7296.00
2019-05-22T08:31:36.023Z,7576.00
2019-05-22T08:32:36.007Z,7664.00
2019-05-22T08:33:35.999Z,7736.00
2019-05-22T08:34:35.997Z,7332.00
2019-05-22T08:35:35.983Z,7376.00
2019-05-22T08:36:38.642Z,7428.00
2019-05-22T08:37:35.978Z,7072.00
2019-05-22T08:38:35.989Z,6852.00
2019-05-22T08:39:35.965Z,6832.00
2019-05-22T08:40:35.954Z,6576.00
2019-05-22T08:41:35.951Z,6236.00
2019-05-22T08:42:35.995Z,6052.00
2019-05-22T08:43:55.836Z,5936.00
2019-05-22T08:44:35.929Z,5636.00
2019-05-22T08:45:35.933Z,5476.00
2019-05-22T08:46:35.925Z,5464.00
2019-05-22T08:47:35.913Z,5472.00
2019-05-22T08:48:35.910Z,5764.00
2019-05-22T08:49:35.895Z,5452.00
2019-05-22T08:50:35.897Z,5208.00
2019-05-22T08:51:35.887Z,4788.00
2019-05-22T08:52:35.882Z,4608.00
2019-05-22T08:53:46.760Z,5088.00
2019-05-22T08:54:35.867Z,5904.00
2019-05-22T08:55:35.961Z,5848.00
2019-05-22T08:56:35.859Z,5820.00
2019-05-22T08:57:35.850Z,5324.00
2019-05-22T08:58:35.851Z,5404.00
2019-05-22T08:59:35.831Z,5388.00
2019-05-22T09:00:35.830Z,5776.00
2019-05-22T09:01:35.830Z,5424.00
2019-05-22T09:02:35.824Z,5280.00
2019-05-22T09:03:35.824Z,6144.00
2019-05-22T09:04:35.812Z,6660.00
2019-05-22T09:05:35.801Z,6812.00
2019-05-22T09:06:35.794Z,7260.00
2019-05-22T09:07:35.788Z,8204.00
2019-05-22T09:08:35.779Z,9216.00
2019-05-22T09:09:35.770Z,9436.00
2019-05-22T09:10:35.766Z,9268.00
2019-05-22T09:11:35.786Z,8880.00
2019-05-22T09:12:35.757Z,8668.00
2019-05-22T09:13:35.751Z,8332.00
2019-05-22T09:14:35.745Z,8356.00
2019-05-22T09:15:35.736Z,8920.00
2019-05-22T09:16:35.725Z,9324.00
2019-05-22T09:17:35.726Z,8692.00
2019-05-22T09:18:35.717Z,7924.00
2019-05-22T09:19:35.713Z,7568.00
2019-05-22T09:20:48.976Z,7716.00
2019-05-22T09:21:35.710Z,8208.00
2019-05-22T09:22:40.681Z,8712.00
2019-05-22T09:23:35.689Z,8460.00
2019-05-22T09:24:35.685Z,8116.00
2019-05-22T09:25:35.679Z,7784.00
2019-05-22T09:26:35.667Z,7880.00
2019-05-22T09:27:35.670Z,8460.00
2019-05-22T09:28:35.670Z,9400.00
2019-05-22T09:29:35.656Z,10380.00
2019-05-22T09:30:35.646Z,11056.00
2019-05-22T09:31:35.665Z,11576.00
2019-05-22T09:32:35.634Z,12148.00
2019-05-22T09:33:35.636Z,11908.00
2019-05-22T09:34:35.625Z,11732.00
2019-05-22T09:35:35.618Z,11320.00
2019-05-22T09:36:35.610Z,10296.00
2019-05-22T09:37:35.609Z,10400.00
2019-05-22T09:38:35.598Z,12136.00
2019-05-22T09:39:35.615Z,11704.00
2019-05-22T09:40:35.585Z,11292.00
2019-05-22T09:41:35.579Z,12488.00
2019-05-22T09:42:35.576Z,15600.00
2019-05-22T09:43:35.571Z,23232.00
2019-05-22T09:44:35.752Z,17536.00
2019-05-22T09:45:35.556Z,19904.00
2019-05-22T09:46:35.560Z,23424.00
2019-05-22T09:47:35.554Z,17536.00
2019-05-22T09:48:35.577Z,15116.00
2019-05-22T09:49:35.534Z,13984.00
2019-05-22T09:50:35.533Z,12692.00
2019-05-22T09:51:35.526Z,11456.00
2019-05-22T09:52:35.519Z,11608.00
2019-05-22T09:53:35.509Z,12776.00
2019-05-22T09:54:35.539Z,13880.00
2019-05-22T09:55:35.501Z,14872.00
2019-05-22T09:56:35.495Z,17376.00
2019-05-22T09:57:35.492Z,21344.00
2019-05-22T09:58:35.493Z,34464.00
2019-05-22T09:59:35.483Z,26240.00
2019-05-22T10:00:35.476Z,20992.00
2019-05-22T10:01:35.469Z,18624.00
2019-05-22T10:02:35.469Z,19392.00
2019-05-22T10:03:35.461Z,21984.00
2019-05-22T10:04:35.451Z,23328.00
2019-05-22T10:05:35.493Z,44256.00
2019-05-22T10:06:35.444Z,29632.00
2019-05-22T10:07:35.438Z,32832.00
2019-05-22T10:08:35.504Z,44800.00
2019-05-22T10:09:35.448Z,29344.00
2019-05-22T10:10:35.428Z,25696.00
2019-05-22T10:11:35.425Z,24864.00
2019-05-22T10:12:35.428Z,25280.00
2019-05-22T10:13:35.679Z,24960.00
2019-05-22T10:14:35.412Z,23552.00
2019-05-22T10:15:35.402Z,23360.00
2019-05-22T10:16:35.409Z,24160.00
2019-05-22T10:17:35.404Z,103296.00
2019-05-22T10:18:35.399Z,45248.00
2019-05-22T10:19:35.398Z,106816.00
2019-05-22T10:20:35.403Z,32448.00
2019-05-22T10:21:35.393Z,31392.00
2019-05-22T10:22:35.387Z,24320.00
2019-05-22T10:23:35.376Z,19712.00
2019-05-22T10:24:35.388Z,20000.00
2019-05-22T10:25:35.374Z,30688.00
2019-05-22T10:26:35.376Z,22400.00
2019-05-22T10:27:35.372Z,105632.00
2019-05-22T10:28:35.369Z,26720.00
2019-05-22T10:29:35.372Z,30560.00
2019-05-22T10:30:35.400Z,31488.00
2019-05-22T10:31:35.365Z,41120.00
2019-05-22T10:32:35.365Z,30752.00
2019-05-22T10:33:35.360Z,43360.00
2019-05-22T10:34:35.364Z,22848.00
2019-05-22T10:35:35.363Z,19424.00
2019-05-22T10:36:35.358Z,19680.00
2019-05-22T10:37:35.354Z,28160.00
2019-05-22T10:38:35.348Z,19520.00
2019-05-22T10:39:35.354Z,19104.00
2019-05-22T10:40:35.352Z,65248.00
2019-05-22T10:41:35.351Z,105248.00
2019-05-22T10:42:35.352Z,116640.00
2019-05-22T10:43:35.348Z,31840.00
2019-05-22T10:44:35.344Z,69312.00
2019-05-22T10:45:35.348Z,26176.00
2019-05-22T10:46:35.346Z,109728.00
2019-05-22T10:47:35.345Z,30816.00
2019-05-22T10:48:35.346Z,25280.00
2019-05-22T10:49:35.343Z,23488.00
2019-05-22T10:50:35.340Z,115200.00
2019-05-22T10:51:35.345Z,37824.00
2019-05-22T10:52:35.353Z,110144.00
2019-05-22T10:53:35.349Z,30496.00
2019-05-22T10:54:35.344Z,101504.00
2019-05-22T10:55:35.343Z,98944.00
2019-05-22T10:56:35.345Z,22400.00
2019-05-22T10:57:35.336Z,70400.00
2019-05-22T10:58:35.339Z,97600.00
2019-05-22T10:59:35.354Z,35904.00
2019-05-22T11:00:35.339Z,26720.00
2019-05-22T11:01:37.542Z,42176.00
2019-05-22T11:02:35.340Z,104800.00
2019-05-22T11:03:35.339Z,28480.00
2019-05-22T11:04:35.343Z,102240.00
2019-05-22T11:05:35.345Z,99936.00
2019-05-22T11:06:35.346Z,102496.00
2019-05-22T11:07:35.350Z,39296.00
2019-05-22T11:08:35.357Z,31232.00
2019-05-22T11:09:35.356Z,103552.00
2019-05-22T11:10:35.362Z,102528.00
2019-05-22T11:11:35.352Z,103872.00
2019-05-22T11:12:35.361Z,100960.00
2019-05-22T11:13:35.363Z,74016.00
2019-05-22T11:14:35.365Z,30336.00
2019-05-22T11:15:35.366Z,99680.00
2019-05-22T11:16:35.378Z,102688.00
2019-05-22T11:17:35.379Z,101632.00
2019-05-22T11:18:35.394Z,102944.00
2019-05-22T11:19:35.384Z,100960.00
2019-05-22T11:20:35.389Z,104768.00
2019-05-22T11:21:35.390Z,109056.00
2019-05-22T11:22:35.404Z,89184.00
2019-05-22T11:23:50.437Z,60384.00
2019-05-22T11:24:35.404Z,20480.00
2019-05-22T11:25:35.442Z,104832.00
2019-05-22T11:26:35.409Z,108544.00
2019-05-22T11:27:35.423Z,109536.00
2019-05-22T11:28:35.470Z,107648.00
2019-05-22T11:29:35.425Z,22336.00
2019-05-22T11:30:35.429Z,109024.00
2019-05-22T11:31:35.427Z,110496.00
2019-05-22T11:32:35.444Z,38176.00
2019-05-22T11:33:35.444Z,97984.00
2019-05-22T11:34:35.477Z,109152.00
2019-05-22T11:35:35.453Z,108256.00
2019-05-22T11:36:35.457Z,107840.00
2019-05-22T11:37:35.463Z,108416.00
2019-05-22T11:38:35.474Z,103776.00
2019-05-22T11:39:39.288Z,105664.00
2019-05-22T11:40:35.474Z,19328.00
2019-05-22T11:41:35.482Z,16080.00
2019-05-22T11:42:35.511Z,85248.00
2019-05-22T11:43:35.503Z,111168.00
2019-05-22T11:44:35.494Z,107776.00
2019-05-22T11:45:35.503Z,104416.00
2019-05-22T11:46:35.507Z,107328.00
2019-05-22T11:47:35.511Z,72096.00
2019-05-22T11:48:35.531Z,17184.00
2019-05-22T11:49:35.523Z,17344.00
2019-05-22T11:50:35.525Z,86944.00
2019-05-22T11:51:35.525Z,66752.00
2019-05-22T11:52:35.543Z,116128.00
2019-05-22T11:53:35.542Z,113312.00
2019-05-22T11:54:35.581Z,112064.00
2019-05-22T11:55:45.197Z,54208.00
2019-05-22T11:56:35.547Z,112768.00
2019-05-22T11:57:35.560Z,107776.00
2019-05-22T11:58:35.571Z,108160.00
2019-05-22T11:59:35.565Z,108800.00
2019-05-22T12:00:35.565Z,106144.00
2019-05-22T12:01:35.570Z,108672.00
2019-05-22T12:02:35.575Z,21184.00
2019-05-22T12:03:35.584Z,23840.00
2019-05-22T12:04:47.341Z,113856.00
2019-05-22T12:05:35.590Z,111328.00
2019-05-22T12:06:35.593Z,113280.00
2019-05-22T12:07:35.600Z,115168.00
2019-05-22T12:08:35.613Z,29440.00
2019-05-22T12:09:35.610Z,107008.00
2019-05-22T12:10:35.630Z,53440.00
2019-05-22T12:11:35.618Z,58400.00
2019-05-22T12:12:35.643Z,114304.00
2019-05-22T12:13:35.635Z,114880.00
2019-05-22T12:14:35.646Z,118528.00
2019-05-22T12:15:35.638Z,111840.00
2019-05-22T12:16:35.633Z,112896.00
2019-05-22T12:17:38.463Z,21696.00
2019-05-22T12:18:35.651Z,109792.00
2019-05-22T12:19:35.685Z,115584.00
2019-05-22T12:20:35.668Z,101216.00
2019-05-22T12:21:35.778Z,109984.00